Time;durP1;ratioP1;P1;durP2;ratioP2;P2;SDS_P1;SDS_P2;PMS_P1;PMS_P2;Temp;Humidity;BMP_temperature;BMP_pressure;BME280_temperature;BME280_humidity;BME280_pressure;Samples;Min_cycle;Max_cycle;Signal;HPM_P1;HPM_P2
2022/07/26 00:00:32;;;;;;;12.48;9.55;;;28.60;99.90;;;;;;4134345;28;20429;-63
2022/07/26 00:02:36;;;;;;;11.70;8.68;;;28.50;99.90;;;;;;4133825;28;20390;-63
2022/07/26 00:04:49;;;;;;;12.40;8.45;;;28.60;99.90;;;;;;4129356;28;20054;-63
2022/07/26 00:06:57;;;;;;;12.90;8.57;;;28.60;99.90;;;;;;4128761;28;20417;-63
2022/07/26 00:09:01;;;;;;;12.55;8.10;;;28.60;99.90;;;;;;4129037;28;20057;-63
2022/07/26 00:11:06;;;;;;;16.65;8.10;;;28.60;99.90;;;;;;4129290;28;20058;-63
2022/07/26 00:13:16;;;;;;;11.82;9.25;;;28.70;99.90;;;;;;4129047;28;20096;-63
2022/07/26 00:15:21;;;;;;;12.80;9.07;;;28.70;99.90;;;;;;4159731;28;20150;-63
2022/07/26 00:17:26;;;;;;;11.48;8.45;;;28.70;99.90;;;;;;4129286;28;20093;-63
2022/07/26 00:19:34;;;;;;;13.00;8.02;;;28.70;99.90;;;;;;4109711;28;20161;-63
2022/07/26 00:21:38;;;;;;;11.32;7.68;;;28.70;99.90;;;;;;4128076;28;20093;-64
2022/07/26 00:23:43;;;;;;;10.57;6.70;;;28.80;99.90;;;;;;4127684;28;20050;-63
2022/07/26 00:25:52;;;;;;;10.13;6.88;;;28.90;99.90;;;;;;4125745;28;20134;-63
2022/07/26 00:27:57;;;;;;;9.65;6.93;;;29.00;99.90;;;;;;4126067;28;20057;-63
2022/07/26 00:30:05;;;;;;;11.35;7.20;;;29.10;99.90;;;;;;4126620;28;20074;-63
2022/07/26 00:32:10;;;;;;;8.07;5.93;;;29.10;99.90;;;;;;4126579;28;20065;-63
2022/07/26 00:34:14;;;;;;;9.02;5.97;;;29.10;99.90;;;;;;4126143;28;20522;-63
2022/07/26 00:36:19;;;;;;;9.30;5.50;;;29.20;99.90;;;;;;4124814;28;20050;-63
2022/07/26 00:38:26;;;;;;;6.20;5.28;;;29.20;99.90;;;;;;4126114;28;20046;-63
2022/07/26 00:40:31;;;;;;;10.23;5.32;;;29.30;99.90;;;;;;4126210;28;20133;-63
2022/07/26 00:42:36;;;;;;;7.15;5.32;;;29.30;99.90;;;;;;4126858;28;20309;-63
2022/07/26 00:44:43;;;;;;;7.13;5.20;;;29.30;99.90;;;;;;4129277;28;20096;-63
2022/07/26 00:46:48;;;;;;;7.88;5.85;;;29.30;99.90;;;;;;4128757;28;20433;-63
2022/07/26 00:48:53;;;;;;;9.40;5.68;;;29.40;99.90;;;;;;4136035;28;20092;-64
2022/07/26 00:51:00;;;;;;;9.50;5.50;;;29.50;99.90;;;;;;4145444;28;20049;-63
2022/07/26 00:53:06;;;;;;;12.70;5.50;;;29.50;99.90;;;;;;4137482;28;20065;-63
2022/07/26 00:55:11;;;;;;;11.35;5.70;;;29.70;99.90;;;;;;4118377;28;20072;-64
2022/07/26 00:57:20;;;;;;;11.43;5.57;;;29.60;99.90;;;;;;4108898;28;20626;-64
2022/07/26 00:59:25;;;;;;;10.50;5.68;;;29.60;99.90;;;;;;4122801;28;20052;-63
2022/07/26 01:01:29;;;;;;;9.23;5.10;;;29.70;99.90;;;;;;4126023;28;20512;-64
2022/07/26 01:03:36;;;;;;;13.52;6.32;;;29.80;99.90;;;;;;4125904;28;20093;-63
2022/07/26 01:05:42;;;;;;;9.82;4.50;;;29.90;99.90;;;;;;4125801;28;20078;-64
2022/07/26 01:07:46;;;;;;;6.63;3.88;;;30.10;99.90;;;;;;4125362;28;20093;-65
2022/07/26 01:09:53;;;;;;;8.57;4.40;;;30.10;99.90;;;;;;4126113;28;20054;-65
2022/07/26 01:11:58;;;;;;;7.57;4.10;;;30.10;99.90;;;;;;4126280;28;20124;-66
2022/07/26 01:14:04;;;;;;;9.30;4.18;;;30.20;99.90;;;;;;4126129;28;20560;-66
2022/07/26 01:16:11;;;;;;;8.40;4.20;;;30.20;99.90;;;;;;4125892;28;20045;-64
2022/07/26 01:18:15;;;;;;;7.63;4.10;;;30.20;99.90;;;;;;4128209;28;20078;-64
2022/07/26 01:20:20;;;;;;;9.80;4.70;;;30.40;99.90;;;;;;4128193;28;20046;-65
2022/07/26 01:22:28;;;;;;;11.32;4.25;;;30.50;99.90;;;;;;4128751;28;20077;-64
2022/07/26 01:24:33;;;;;;;7.93;4.03;;;30.60;99.90;;;;;;4128781;28;20034;-64
2022/07/26 01:26:37;;;;;;;5.25;4.05;;;30.70;99.90;;;;;;4128281;28;20361;-64
2022/07/26 01:28:45;;;;;;;7.18;3.63;;;30.80;99.90;;;;;;4128070;28;20190;-63
2022/07/26 01:30:49;;;;;;;9.05;3.85;;;30.90;99.90;;;;;;4128574;28;20057;-64
2022/07/26 01:32:54;;;;;;;6.97;3.35;;;30.90;99.90;;;;;;4127287;28;20054;-64
2022/07/26 01:35:04;;;;;;;5.13;3.47;;;31.00;99.90;;;;;;4125816;28;20050;-63
2022/07/26 01:37:08;;;;;;;7.28;3.88;;;31.00;99.90;;;;;;4128176;28;20507;-64
2022/07/26 01:39:13;;;;;;;8.27;3.55;;;31.00;99.90;;;;;;4128226;28;20108;-64
2022/07/26 01:41:19;;;;;;;5.03;3.15;;;31.10;99.90;;;;;;4127781;28;20093;-64
2022/07/26 01:43:41;;;;;;;4.93;3.10;;;31.20;99.90;;;;;;4128209;28;20046;-63
2022/07/26 01:45:45;;;;;;;8.98;3.63;;;31.00;99.90;;;;;;4126794;28;20193;-64
2022/07/26 01:47:52;;;;;;;4.90;3.20;;;31.10;99.90;;;;;;4128017;28;20082;-64
2022/07/26 01:49:56;;;;;;;9.57;3.33;;;31.10;99.90;;;;;;4144525;28;20500;-63
2022/07/26 01:52:01;;;;;;;5.95;3.40;;;31.20;99.90;;;;;;4144453;28;20077;-64
2022/07/26 01:54:09;;;;;;;4.75;3.10;;;31.30;99.90;;;;;;4144456;28;20144;-64
2022/07/26 01:56:14;;;;;;;6.97;3.20;;;31.40;99.90;;;;;;4144441;28;20049;-64
2022/07/26 01:58:19;;;;;;;5.60;2.67;;;31.30;99.90;;;;;;4174561;28;20059;-64
2022/07/26 02:00:26;;;;;;;4.40;2.75;;;31.40;99.90;;;;;;4144118;28;20040;-64
2022/07/26 02:02:31;;;;;;;6.47;2.80;;;31.50;99.90;;;;;;4144108;28;20045;-64
2022/07/26 02:06:57;;;;;;;3.90;2.88;;;31.60;99.90;;;;;;4142478;28;20050;-64
2022/07/26 02:09:01;;;;;;;4.45;2.42;;;31.70;99.90;;;;;;4143403;28;20057;-63
2022/07/26 02:11:08;;;;;;;6.32;2.80;;;31.70;99.90;;;;;;4144138;28;20691;-64
2022/07/26 02:13:15;;;;;;;7.95;3.45;;;31.70;99.90;;;;;;4144089;28;20531;-63
2022/07/26 02:15:19;;;;;;;3.67;2.70;;;31.70;99.90;;;;;;4143723;28;20097;-64
2022/07/26 02:17:24;;;;;;;5.10;2.55;;;31.80;99.90;;;;;;4129793;28;20419;-63
2022/07/26 02:19:32;;;;;;;4.25;2.90;;;31.90;99.90;;;;;;4127291;28;20080;-64
2022/07/26 02:21:36;;;;;;;3.50;2.35;;;31.90;99.90;;;;;;4127752;28;20497;-64
2022/07/26 02:23:41;;;;;;;3.95;2.50;;;32.00;99.90;;;;;;4127911;28;20328;-64
2022/07/26 02:25:50;;;;;;;4.03;2.20;;;32.00;99.90;;;;;;4126698;28;20109;-64
2022/07/26 02:27:54;;;;;;;5.43;2.80;;;31.90;99.90;;;;;;4126987;28;20109;-64
2022/07/26 02:29:59;;;;;;;4.75;2.50;;;32.00;99.90;;;;;;4127807;28;20046;-65
2022/07/26 02:32:08;;;;;;;4.85;2.47;;;32.00;99.90;;;;;;4126656;28;20429;-63
2022/07/26 02:34:12;;;;;;;3.97;2.47;;;31.90;99.90;;;;;;4127349;28;20065;-63
2022/07/26 02:36:17;;;;;;;5.00;2.30;;;32.10;99.90;;;;;;4125118;28;20046;-64
2022/07/26 02:38:26;;;;;;;5.75;2.38;;;32.30;99.90;;;;;;4108751;28;20587;-64
2022/07/26 02:40:32;;;;;;;6.95;2.85;;;32.30;99.90;;;;;;4125789;28;20073;-64
2022/07/26 02:42:36;;;;;;;4.38;2.40;;;32.40;99.90;;;;;;4127015;28;20057;-63
2022/07/26 02:44:41;;;;;;;6.55;2.75;;;32.50;99.90;;;;;;4127526;28;20077;-63
2022/07/26 02:46:46;;;;;;;4.82;2.88;;;32.60;99.70;;;;;;4126332;28;20050;-63
2022/07/26 02:48:50;;;;;;;5.07;2.80;;;32.60;99.90;;;;;;4133813;28;20057;-63
2022/07/26 02:50:59;;;;;;;4.75;2.78;;;32.70;99.90;;;;;;4142346;28;20489;-63
2022/07/26 02:53:04;;;;;;;5.90;2.85;;;32.80;99.90;;;;;;4143707;28;20041;-63
2022/07/26 02:55:09;;;;;;;3.13;2.38;;;33.00;99.90;;;;;;4143726;28;20626;-63
2022/07/26 02:57:15;;;;;;;5.95;2.35;;;33.00;99.90;;;;;;4142414;28;20046;-63
2022/07/26 02:59:19;;;;;;;2.45;1.90;;;32.80;99.50;;;;;;4142927;28;20100;-63
2022/07/26 03:01:24;;;;;;;3.65;2.20;;;32.80;99.90;;;;;;4142361;28;20176;-63
2022/07/26 03:03:31;;;;;;;3.83;2.28;;;32.80;98.80;;;;;;4143876;28;20050;-64
2022/07/26 03:05:39;;;;;;;6.25;2.45;;;32.60;99.60;;;;;;4142656;28;20042;-64
2022/07/26 03:07:43;;;;;;;4.78;2.22;;;32.60;99.70;;;;;;4141879;28;20054;-61
2022/07/26 03:09:49;;;;;;;4.70;2.40;;;32.70;99.00;;;;;;4143367;28;20081;-61
2022/07/26 03:11:54;;;;;;;10.48;6.78;;;32.80;98.50;;;;;;4142426;28;20493;-61
2022/07/26 03:13:58;;;;;;;8.35;3.22;;;32.80;98.40;;;;;;4143400;28;20504;-61
2022/07/26 03:16:09;;;;;;;19.45;13.93;;;32.80;98.80;;;;;;4138554;28;20576;-61
2022/07/26 03:18:13;;;;;;;20.75;13.50;;;33.10;97.90;;;;;;4126591;28;20100;-61
2022/07/26 03:20:18;;;;;;;23.88;16.13;;;33.10;98.30;;;;;;4126770;28;20054;-61
2022/07/26 03:22:24;;;;;;;40.88;36.55;;;33.20;98.10;;;;;;4125852;28;20524;-61
2022/07/26 03:24:28;;;;;;;19.48;14.98;;;33.30;97.80;;;;;;4127152;28;20050;-61
2022/07/26 03:26:33;;;;;;;9.82;6.43;;;33.20;97.80;;;;;;4125871;28;20046;-61
2022/07/26 03:28:41;;;;;;;8.13;6.65;;;33.20;97.70;;;;;;4127109;28;20100;-61
2022/07/26 03:30:46;;;;;;;25.30;10.02;;;33.30;97.60;;;;;;4126577;28;20055;-61
2022/07/26 03:32:50;;;;;;;10.95;3.97;;;33.40;97.70;;;;;;4126612;28;20054;-61
2022/07/26 03:34:57;;;;;;;12.65;4.60;;;33.50;97.50;;;;;;4126797;28;20501;-63
2022/07/26 03:37:02;;;;;;;7.03;2.88;;;33.60;97.30;;;;;;4126057;28;20054;-61
2022/07/26 03:39:06;;;;;;;6.80;3.20;;;33.70;97.50;;;;;;4126280;28;20042;-61
2022/07/26 03:41:13;;;;;;;8.05;3.08;;;33.60;97.90;;;;;;4125937;28;20050;-61
2022/07/26 03:43:18;;;;;;;8.60;3.05;;;33.30;98.10;;;;;;4158131;28;20050;-61
2022/07/26 03:45:25;;;;;;;8.02;2.83;;;33.00;97.80;;;;;;4126964;28;20583;-62
2022/07/26 03:47:29;;;;;;;5.88;2.35;;;33.00;97.50;;;;;;4125851;28;20081;-62
2022/07/26 03:49:34;;;;;;;3.60;2.20;;;33.00;97.80;;;;;;4139317;28;20049;-61
2022/07/26 03:51:39;;;;;;;6.60;2.20;;;33.00;97.80;;;;;;4142235;28;20050;-61
2022/07/26 03:53:47;;;;;;;4.72;2.20;;;33.00;98.20;;;;;;4143228;28;20045;-61
2022/07/26 03:58:09;;;;;;;5.20;2.22;;;33.20;98.20;;;;;;4125352;28;20312;-61
2022/07/26 04:00:16;;;;;;;7.80;2.60;;;33.20;98.10;;;;;;4136568;28;20043;-61
2022/07/26 04:02:20;;;;;;;6.65;2.30;;;33.10;98.70;;;;;;4129154;28;20054;-62
2022/07/26 04:04:25;;;;;;;6.10;2.30;;;33.20;98.50;;;;;;4135543;28;20042;-62
2022/07/26 04:06:31;;;;;;;8.98;2.55;;;33.40;97.40;;;;;;4138647;28;20050;-61
2022/07/26 04:08:37;;;;;;;6.82;2.45;;;33.60;97.00;;;;;;4145292;28;20058;-61
2022/07/26 04:10:45;;;;;;;6.50;2.35;;;33.60;96.50;;;;;;4145567;28;20519;-61
2022/07/26 04:12:54;;;;;;;5.90;2.20;;;33.60;96.50;;;;;;4104990;28;20375;-61
2022/07/26 04:14:59;;;;;;;4.32;2.20;;;33.90;96.80;;;;;;4113641;28;20051;-62
2022/07/26 04:17:05;;;;;;;7.05;2.10;;;34.10;96.70;;;;;;4123596;28;20057;-60
2022/07/26 04:19:14;;;;;;;3.80;2.38;;;34.20;96.00;;;;;;4129592;28;20046;-61
2022/07/26 04:21:19;;;;;;;3.78;2.17;;;34.30;95.60;;;;;;4128753;28;20100;-61
2022/07/26 04:23:23;;;;;;;6.45;2.45;;;34.30;96.50;;;;;;4129294;28;20133;-61
2022/07/26 04:25:33;;;;;;;3.65;1.92;;;34.50;95.80;;;;;;4110569;28;20117;-61
2022/07/26 04:27:43;;;;;;;4.13;2.05;;;34.50;94.40;;;;;;4129079;28;20052;-62
2022/07/26 04:29:48;;;;;;;4.95;2.15;;;34.50;93.80;;;;;;4133616;28;20046;-62
2022/07/26 04:31:55;;;;;;;3.53;2.10;;;34.50;93.90;;;;;;4143095;28;20053;-61
2022/07/26 04:33:59;;;;;;;2.45;1.88;;;34.60;93.40;;;;;;4144188;28;20097;-62
2022/07/26 04:36:04;;;;;;;3.25;2.10;;;34.50;93.60;;;;;;4144876;28;20074;-62
2022/07/26 04:38:13;;;;;;;3.20;1.80;;;34.50;93.50;;;;;;4144783;28;20049;-61
2022/07/26 04:40:19;;;;;;;4.22;1.65;;;34.60;93.10;;;;;;4145472;28;20037;-62
2022/07/26 04:42:26;;;;;;;3.63;1.80;;;34.80;94.00;;;;;;4144695;28;20049;-61
2022/07/26 04:44:32;;;;;;;4.88;2.00;;;34.90;93.60;;;;;;4145869;28;20514;-62
2022/07/26 04:46:37;;;;;;;2.88;1.70;;;34.90;93.10;;;;;;4141901;28;20050;-62
2022/07/26 04:48:47;;;;;;;2.65;1.92;;;35.00;92.50;;;;;;4128673;28;20038;-62
2022/07/26 04:50:53;;;;;;;3.20;1.85;;;35.00;92.60;;;;;;4128579;28;20054;-62
2022/07/26 04:52:57;;;;;;;2.90;1.73;;;35.10;92.50;;;;;;4110289;28;20062;-61
2022/07/26 04:55:03;;;;;;;3.25;1.92;;;35.40;92.00;;;;;;4127609;28;20544;-62
2022/07/26 04:57:11;;;;;;;3.38;1.90;;;35.50;91.90;;;;;;4127854;28;20536;-61
2022/07/26 04:59:17;;;;;;;3.03;2.08;;;35.30;92.50;;;;;;4128631;28;20058;-61
2022/07/26 05:01:24;;;;;;;4.38;2.00;;;35.40;92.50;;;;;;4128070;28;20390;-61
2022/07/26 05:03:31;;;;;;;3.92;1.80;;;35.60;92.10;;;;;;4111663;28;20054;-61
2022/07/26 05:05:36;;;;;;;3.38;1.92;;;35.70;92.10;;;;;;4144765;28;20549;-61
2022/07/26 05:07:58;;;;;;;5.28;1.85;;;35.60;91.80;;;;;;4121702;28;20076;-62
2022/07/26 05:10:05;;;;;;;3.67;2.20;;;35.30;92.10;;;;;;4144912;28;20129;-61
2022/07/26 05:12:10;;;;;;;4.00;2.03;;;35.30;92.50;;;;;;4143561;28;20060;-62
2022/07/26 05:14:14;;;;;;;2.88;2.03;;;35.20;92.70;;;;;;4143649;28;20072;-61
2022/07/26 05:16:20;;;;;;;4.13;2.20;;;35.00;92.10;;;;;;4139166;28;20050;-61
2022/07/26 05:18:28;;;;;;;5.35;2.78;;;35.00;92.60;;;;;;4128027;28;20073;-61
2022/07/26 05:20:46;;;;;;;8.23;4.03;;;34.80;92.40;;;;;;4128391;28;20117;-61
2022/07/26 05:22:52;;;;;;;4.20;3.20;;;34.70;92.40;;;;;;4128158;28;20097;-61
2022/07/26 05:24:57;;;;;;;3.70;2.78;;;34.30;92.10;;;;;;4128733;28;20405;-62
2022/07/26 05:27:01;;;;;;;3.65;2.50;;;34.30;92.40;;;;;;4127359;28;20054;-62
2022/07/26 05:29:10;;;;;;;2.65;2.08;;;34.20;92.60;;;;;;4128076;28;20129;-62
2022/07/26 05:31:14;;;;;;;4.03;2.58;;;34.30;92.80;;;;;;4126601;28;20061;-62
2022/07/26 05:33:19;;;;;;;4.20;2.80;;;34.40;92.80;;;;;;4128328;28;20133;-62
2022/07/26 05:35:28;;;;;;;4.93;2.50;;;34.60;93.00;;;;;;4128373;28;20497;-62
2022/07/26 05:37:33;;;;;;;4.20;2.10;;;34.90;93.00;;;;;;4125619;28;20358;-62
2022/07/26 05:39:37;;;;;;;3.17;2.30;;;35.20;92.50;;;;;;4127002;28;20070;-62
2022/07/26 05:41:44;;;;;;;3.78;2.10;;;35.20;92.30;;;;;;4127281;28;20104;-61
2022/07/26 05:43:48;;;;;;;4.07;2.20;;;35.10;93.70;;;;;;4128321;28;20038;-62
2022/07/26 05:45:53;;;;;;;2.50;2.08;;;35.10;93.50;;;;;;4127722;28;20089;-62
2022/07/26 05:47:58;;;;;;;2.53;1.65;;;35.20;93.00;;;;;;4126168;28;20042;-62
2022/07/26 05:50:04;;;;;;;3.00;1.85;;;35.30;92.40;;;;;;4128358;28;20055;-62
2022/07/26 05:52:08;;;;;;;2.95;2.00;;;35.20;92.70;;;;;;4126879;28;20053;-62
2022/07/26 05:54:13;;;;;;;3.22;1.85;;;35.10;92.90;;;;;;4128217;28;20054;-62
2022/07/26 05:56:19;;;;;;;2.75;2.03;;;35.00;93.10;;;;;;4127256;28;20514;-62
2022/07/26 05:58:24;;;;;;;3.58;2.10;;;34.90;93.30;;;;;;4127899;28;20501;-62
2022/07/26 06:00:29;;;;;;;3.55;2.25;;;34.70;93.40;;;;;;4128196;28;20042;-62
2022/07/26 06:02:34;;;;;;;5.00;2.50;;;34.70;93.50;;;;;;4127150;28;20133;-63
2022/07/26 06:04:40;;;;;;;4.40;2.28;;;34.70;93.40;;;;;;4138482;28;20100;-63
2022/07/26 06:06:47;;;;;;;3.35;2.13;;;34.80;93.50;;;;;;4142582;28;20050;-63
2022/07/26 06:08:51;;;;;;;2.92;2.15;;;34.80;93.30;;;;;;4143640;28;20468;-63
2022/07/26 06:10:56;;;;;;;4.68;1.92;;;34.80;93.30;;;;;;4143516;28;20054;-63
2022/07/26 06:13:03;;;;;;;3.85;1.92;;;34.70;93.00;;;;;;4143936;28;20457;-63
2022/07/26 06:15:09;;;;;;;4.13;2.17;;;34.50;93.60;;;;;;4143526;28;20072;-63
2022/07/26 06:17:18;;;;;;;5.03;2.30;;;34.40;93.60;;;;;;4129970;28;20100;-63
2022/07/26 06:19:23;;;;;;;3.63;2.00;;;34.40;93.90;;;;;;4127221;28;20495;-62
2022/07/26 06:21:27;;;;;;;2.42;1.83;;;34.40;94.30;;;;;;4126796;28;20038;-63
2022/07/26 06:23:32;;;;;;;3.55;2.30;;;34.40;94.40;;;;;;4127093;28;20054;-63
2022/07/26 06:25:40;;;;;;;4.85;2.15;;;34.30;94.20;;;;;;4127670;28;20058;-62
2022/07/26 06:27:45;;;;;;;3.65;2.25;;;34.70;94.00;;;;;;4126407;28;20046;-62
2022/07/26 06:29:51;;;;;;;3.65;2.10;;;35.00;93.30;;;;;;4126176;28;20496;-63
2022/07/26 06:31:59;;;;;;;2.75;1.90;;;35.30;92.20;;;;;;4126857;28;20046;-62
2022/07/26 06:34:04;;;;;;;3.47;2.08;;;35.50;91.50;;;;;;4127247;28;20046;-63
2022/07/26 06:36:12;;;;;;;4.28;2.28;;;35.40;91.30;;;;;;4126873;28;20487;-63
2022/07/26 06:38:18;;;;;;;3.47;2.30;;;35.50;91.10;;;;;;4126999;28;20038;-63
2022/07/26 06:40:23;;;;;;;3.53;2.22;;;35.50;90.90;;;;;;4127658;28;20129;-63
2022/07/26 06:42:28;;;;;;;2.92;2.15;;;35.60;90.90;;;;;;4126371;28;20042;-62
2022/07/26 06:44:36;;;;;;;3.40;2.33;;;35.70;90.30;;;;;;4126096;28;20069;-62
2022/07/26 06:46:41;;;;;;;2.40;1.88;;;35.60;90.90;;;;;;4126364;28;20049;-62
2022/07/26 06:48:46;;;;;;;3.28;2.10;;;35.60;92.10;;;;;;4125773;28;20042;-62
2022/07/26 06:50:57;;;;;;;3.75;2.53;;;35.50;92.00;;;;;;4127854;28;20104;-63
2022/07/26 06:53:01;;;;;;;6.68;2.10;;;35.40;92.00;;;;;;4130361;28;20125;-62
2022/07/26 06:55:07;;;;;;;3.05;1.95;;;35.30;92.20;;;;;;4130273;28;20486;-62
2022/07/26 06:57:15;;;;;;;3.22;1.98;;;35.30;92.10;;;;;;4142611;28;20125;-63
2022/07/26 06:59:19;;;;;;;3.50;1.92;;;35.60;91.80;;;;;;4140367;28;20680;-63
2022/07/26 07:01:24;;;;;;;4.10;2.17;;;35.60;91.70;;;;;;4126584;28;20074;-64
2022/07/26 07:03:50;;;;;;;4.25;2.17;;;35.80;91.40;;;;;;4127443;28;20046;-63
2022/07/26 07:05:55;;;;;;;3.17;2.00;;;36.00;91.60;;;;;;4126144;28;20058;-63
2022/07/26 07:08:00;;;;;;;2.65;2.00;;;35.90;91.60;;;;;;4129693;28;20053;-63
2022/07/26 07:10:11;;;;;;;4.40;1.95;;;35.60;91.60;;;;;;4143440;28;20097;-63
2022/07/26 07:12:16;;;;;;;3.35;1.95;;;35.70;92.30;;;;;;4141883;28;20100;-63
2022/07/26 07:14:20;;;;;;;4.68;2.00;;;35.90;91.90;;;;;;4143377;28;20045;-63
2022/07/26 07:16:27;;;;;;;4.13;2.10;;;35.90;91.60;;;;;;4136605;28;20105;-63
2022/07/26 07:18:32;;;;;;;3.92;2.03;;;35.70;91.30;;;;;;4110547;28;20614;-63
2022/07/26 07:20:37;;;;;;;2.70;1.85;;;35.50;91.40;;;;;;4111040;28;20194;-63
2022/07/26 07:22:45;;;;;;;3.60;2.00;;;35.50;91.20;;;;;;4111558;28;20524;-63
2022/07/26 07:24:50;;;;;;;2.55;1.80;;;35.80;91.10;;;;;;4127755;28;20074;-63
2022/07/26 07:26:54;;;;;;;3.10;2.22;;;36.00;90.50;;;;;;4130957;28;20050;-63
2022/07/26 07:29:03;;;;;;;2.42;1.70;;;36.10;89.90;;;;;;4126825;28;20263;-63
2022/07/26 07:31:08;;;;;;;3.88;2.47;;;36.20;89.40;;;;;;4115620;28;20868;-63
2022/07/26 07:33:13;;;;;;;4.18;2.17;;;36.30;89.70;;;;;;4109230;28;20066;-63
2022/07/26 07:35:25;;;;;;;3.58;2.10;;;36.40;89.30;;;;;;4113773;28;20058;-63
2022/07/26 07:37:35;;;;;;;3.35;1.95;;;36.50;89.10;;;;;;4111952;28;20462;-63
2022/07/26 07:39:56;;;;;;;2.60;1.80;;;36.50;89.40;;;;;;4114399;28;20050;-63
2022/07/26 07:42:02;;;;;;;3.22;2.10;;;36.30;90.40;;;;;;4112941;28;20418;-63
2022/07/26 07:44:07;;;;;;;4.07;1.90;;;36.10;90.80;;;;;;4114011;28;20043;-63
2022/07/26 07:46:12;;;;;;;5.90;2.03;;;35.90;91.20;;;;;;4113716;28;20592;-62
2022/07/26 07:48:18;;;;;;;2.53;2.03;;;35.70;91.90;;;;;;4127662;28;20046;-62
2022/07/26 07:50:23;;;;;;;3.58;1.98;;;35.50;92.20;;;;;;4129775;28;20046;-63
2022/07/26 07:52:30;;;;;;;4.07;2.00;;;35.40;92.30;;;;;;4128840;28;20078;-63
2022/07/26 07:54:37;;;;;;;4.45;2.22;;;35.50;92.20;;;;;;4127717;28;20046;-62
2022/07/26 07:56:45;;;;;;;3.40;2.13;;;35.80;91.50;;;;;;4129217;28;20070;-63
2022/07/26 07:58:51;;;;;;;3.50;2.22;;;36.10;91.00;;;;;;4130228;28;20170;-62
2022/07/26 08:00:58;;;;;;;3.40;2.17;;;36.40;90.20;;;;;;4106904;28;20566;-62
2022/07/26 08:03:03;;;;;;;2.67;1.90;;;36.60;90.30;;;;;;4119419;28;20066;-63
2022/07/26 08:05:22;;;;;;;2.70;2.08;;;36.80;89.90;;;;;;4129245;28;20081;-62
2022/07/26 08:07:30;;;;;;;4.72;2.20;;;36.80;90.00;;;;;;4128598;28;20539;-62
2022/07/26 08:09:39;;;;;;;3.72;2.08;;;36.80;89.30;;;;;;4129445;28;20494;-63
2022/07/26 08:11:56;;;;;;;2.17;1.65;;;36.80;88.80;;;;;;4128477;28;20061;-63
2022/07/26 08:14:19;;;;;;;3.25;2.00;;;36.90;88.50;;;;;;4129112;28;20061;-63
2022/07/26 08:16:24;;;;;;;2.30;1.90;;;37.00;89.20;;;;;;4128787;28;20034;-63
2022/07/26 08:18:53;;;;;;;3.42;2.22;;;37.00;88.10;;;;;;4104722;28;20054;-62
2022/07/26 08:21:25;;;;;;;4.20;1.70;;;36.80;87.60;;;;;;4112405;28;20070;-63
2022/07/26 08:23:31;;;;;;;3.60;1.90;;;36.50;87.90;;;;;;4113243;28;20047;-63
2022/07/26 08:25:35;;;;;;;6.88;2.00;;;36.40;86.90;;;;;;4112966;28;20047;-62
2022/07/26 08:27:59;;;;;;;8.68;1.55;;;36.30;88.90;;;;;;4112162;28;20046;-62
2022/07/26 08:30:07;;;;;;;11.90;1.83;;;35.70;90.70;;;;;;4113426;28;20061;-62
2022/07/26 08:32:11;;;;;;;9.85;1.40;;;35.30;91.80;;;;;;4112261;28;20055;-62
2022/07/26 08:34:20;;;;;;;5.25;1.83;;;35.20;92.30;;;;;;4113271;28;20112;-62
2022/07/26 08:36:25;;;;;;;5.05;1.75;;;35.20;92.00;;;;;;4112604;28;20064;-62
2022/07/26 08:38:37;;;;;;;4.00;1.33;;;35.00;92.20;;;;;;4112809;28;20046;-62
2022/07/26 08:40:41;;;;;;;2.67;1.33;;;34.90;92.20;;;;;;4112979;28;20110;-62
2022/07/26 08:42:53;;;;;;;3.95;1.40;;;34.80;92.40;;;;;;4112193;28;20061;-62
2022/07/26 08:44:58;;;;;;;7.38;1.55;;;34.70;92.50;;;;;;4113505;28;20053;-62
2022/07/26 08:47:04;;;;;;;6.20;1.45;;;34.50;92.50;;;;;;4115819;28;20134;-62
2022/07/26 08:49:10;;;;;;;4.30;1.40;;;34.40;92.90;;;;;;4128635;28;20046;-61
2022/07/26 08:51:15;;;;;;;3.47;1.50;;;34.40;93.30;;;;;;4129188;28;20246;-61
2022/07/26 08:53:20;;;;;;;2.50;1.13;;;34.10;93.60;;;;;;4127280;28;20512;-61
2022/07/26 08:55:25;;;;;;;3.65;1.27;;;34.00;93.90;;;;;;4128674;28;20092;-61
2022/07/26 08:57:41;;;;;;;3.40;1.45;;;33.80;93.80;;;;;;4127273;28;20073;-61
2022/07/26 09:00:20;;;;;;;3.22;1.30;;;33.60;94.00;;;;;;4137356;28;20057;-62
2022/07/26 09:02:38;;;;;;;3.75;1.52;;;33.60;94.50;;;;;;4171605;28;20543;-61
2022/07/26 09:04:45;;;;;;;2.22;1.30;;;33.30;94.30;;;;;;4175033;28;20039;-61
2022/07/26 09:07:07;;;;;;;2.08;1.00;;;33.30;94.10;;;;;;4144129;28;20057;-61
2022/07/26 09:09:12;;;;;;;3.30;1.25;;;33.20;94.60;;;;;;4172883;28;20519;-62
2022/07/26 09:11:29;;;;;;;3.92;1.35;;;33.20;94.30;;;;;;4138673;28;20050;-61
2022/07/26 09:14:05;;;;;;;1.60;0.90;;;33.30;94.10;;;;;;4136533;28;20052;-61
2022/07/26 09:16:10;;;;;;;2.42;1.20;;;33.30;93.80;;;;;;4136122;28;20066;-62
2022/07/26 09:18:26;;;;;;;2.22;1.10;;;33.20;93.70;;;;;;4126569;28;20064;-62
2022/07/26 09:20:34;;;;;;;2.00;1.33;;;33.30;94.00;;;;;;4140868;28;20058;-61
2022/07/26 09:22:52;;;;;;;2.95;1.63;;;33.30;93.80;;;;;;4133489;28;20048;-61
2022/07/26 09:24:59;;;;;;;2.67;1.60;;;33.40;93.70;;;;;;4128450;28;20109;-61
2022/07/26 09:27:07;;;;;;;2.72;1.73;;;33.40;94.00;;;;;;4117801;28;20043;-60
2022/07/26 09:29:12;;;;;;;2.35;1.67;;;33.40;93.90;;;;;;4170611;28;20128;-61
2022/07/26 09:31:21;;;;;;;3.00;1.45;;;33.40;93.60;;;;;;4134962;28;20640;-62
2022/07/26 09:33:45;;;;;;;3.28;1.00;;;33.40;93.30;;;;;;4157395;28;20334;-62
2022/07/26 09:36:03;;;;;;;2.03;0.77;;;33.20;92.90;;;;;;4128460;28;20043;-61
2022/07/26 09:38:14;;;;;;;2.00;1.10;;;33.20;92.50;;;;;;4125261;28;20043;-62
2022/07/26 09:40:21;;;;;;;2.30;0.85;;;33.10;92.30;;;;;;4126445;28;20581;-62
2022/07/26 09:42:27;;;;;;;2.22;0.90;;;33.10;92.70;;;;;;4125323;28;20038;-64
2022/07/26 09:44:34;;;;;;;1.45;0.95;;;33.10;92.80;;;;;;4127795;28;20125;-62
2022/07/26 09:46:56;;;;;;;2.03;0.80;;;33.20;92.80;;;;;;4126606;28;20096;-63
2022/07/26 09:49:17;;;;;;;1.67;0.70;;;33.20;92.30;;;;;;4141589;28;20362;-64
2022/07/26 09:51:39;;;;;;;1.85;0.75;;;33.30;92.60;;;;;;4111941;28;20058;-63
2022/07/26 09:53:45;;;;;;;1.83;0.90;;;33.20;92.50;;;;;;4110829;28;20089;-61
2022/07/26 09:55:55;;;;;;;2.85;0.98;;;33.30;92.60;;;;;;4111831;28;20050;-62
2022/07/26 09:58:02;;;;;;;2.95;1.80;;;33.30;92.60;;;;;;4109225;28;20082;-62
2022/07/26 10:00:07;;;;;;;3.08;2.20;;;33.20;92.20;;;;;;4112192;28;20062;-62
2022/07/26 10:02:13;;;;;;;3.17;2.10;;;33.20;92.40;;;;;;4109998;28;20133;-63
2022/07/26 10:04:17;;;;;;;3.35;2.22;;;33.10;92.10;;;;;;4111932;28;20119;-62
2022/07/26 10:06:22;;;;;;;4.07;1.23;;;33.00;92.20;;;;;;4122385;28;20050;-62
2022/07/26 10:08:32;;;;;;;6.90;1.38;;;33.10;92.10;;;;;;4126038;28;20042;-63
2022/07/26 10:10:46;;;;;;;4.82;1.05;;;33.20;92.20;;;;;;4127871;28;20134;-63
2022/07/26 10:12:51;;;;;;;1.63;1.00;;;33.10;92.20;;;;;;4124942;28;20066;-61
2022/07/26 10:14:58;;;;;;;1.80;0.80;;;33.00;91.40;;;;;;4126519;28;20096;-62
2022/07/26 10:17:35;;;;;;;4.00;1.10;;;32.80;91.60;;;;;;4125936;28;20042;-62
2022/07/26 10:19:40;;;;;;;3.70;1.00;;;32.80;91.20;;;;;;4134706;28;20049;-63
2022/07/26 10:21:49;;;;;;;2.15;0.93;;;32.80;91.50;;;;;;4142817;28;20137;-63
2022/07/26 10:23:57;;;;;;;4.43;1.88;;;32.80;91.70;;;;;;4141659;28;20491;-62
2022/07/26 10:26:07;;;;;;;2.38;1.73;;;32.60;91.70;;;;;;4142039;28;20276;-62
2022/07/26 10:28:23;;;;;;;3.42;2.08;;;32.50;92.20;;;;;;4141861;28;20053;-62
2022/07/26 10:30:30;;;;;;;3.88;2.05;;;32.40;92.30;;;;;;4143032;28;20045;-63
2022/07/26 10:32:37;;;;;;;4.15;1.80;;;32.30;92.50;;;;;;4139047;28;20050;-63
2022/07/26 10:34:42;;;;;;;2.25;1.25;;;32.30;92.60;;;;;;4131728;28;20065;-61
2022/07/26 10:36:49;;;;;;;3.60;1.20;;;32.40;92.70;;;;;;4133094;28;20064;-62
2022/07/26 10:39:00;;;;;;;;;;;32.20;92.70;;;;;;4124841;28;20050;-63
2022/07/26 10:41:07;;;;;;;5.22;1.65;;;32.10;93.20;;;;;;4133929;28;19926;-62
2022/07/26 10:43:13;;;;;;;2.45;1.20;;;32.10;93.20;;;;;;4133686;28;20093;-62
2022/07/26 10:45:37;;;;;;;27.85;4.10;;;32.10;93.10;;;;;;4134261;28;20038;-63
2022/07/26 10:48:13;;;;;;;92.03;9.40;;;32.10;93.50;;;;;;4133855;28;20042;-62
2022/07/26 10:50:31;;;;;;;40.53;5.82;;;31.90;93.90;;;;;;4137717;28;20085;-63
2022/07/26 10:52:38;;;;;;;111.25;11.32;;;31.90;93.00;;;;;;4133469;28;20112;-63
2022/07/26 10:55:04;;;;;;;47.00;4.57;;;31.90;93.20;;;;;;4130243;28;20034;-62
2022/07/26 10:57:09;;;;;;;9.20;2.38;;;32.00;92.80;;;;;;4127390;28;20042;-63
2022/07/26 10:59:16;;;;;;;4.88;1.88;;;31.80;93.10;;;;;;4127387;28;20038;-62
2022/07/26 11:01:42;;;;;;;45.92;5.60;;;31.70;93.70;;;;;;4099290;28;20604;-63
2022/07/26 11:03:46;;;;;;;23.08;3.60;;;31.60;93.70;;;;;;4133755;28;20108;-62
2022/07/26 11:05:51;;;;;;;9.90;2.72;;;31.60;93.90;;;;;;4132680;28;20038;-63
2022/07/26 11:08:09;;;;;;;5.65;2.53;;;31.50;93.90;;;;;;4127272;28;20077;-63